Ashokan, NY

2:15 PM EDT on August 30, 2014 (GMT -0400)
Bag End | Change Station
CLOSE
Current Station
Personal Weather Station
Location: Boiceville, NY
Elevation: 1096 ft
Nearby Weather Stations

Elev 1096 ft 42.00 °N, 74.25 °W | Updated 1 second ago

Mostly Cloudy
Mostly Cloudy
77.2 °F
Feels Like 79 °F
N
4.5
Wind Variable Wind from North
Gusts 7.6 mph

Today
High -- | Low -- °F
--% Chance of Precip.
Yesterday
High -- | Low -- °F
Precip. -- in
6:20 AM 7:33 PM
Waxing Crescent, 23% visible
Pressure 30.20 in
Visibility 10.0 miles
Clouds Few 4200 ft
Mostly Cloudy 5000 ft
Heat Index 79 °F
Dew Point 64 °F
Humidity 64%
Rainfall 0.00 in
Snow Depth Not available.
UV 5 out of 12
Pollen 9.00 out of 12
PM2.5 Good
Flu Activity Not available.
METAR KPOU 301653Z VRB06KT 10SM FEW042 BKN050 25/14 A3021 RMK AO2 SLP225 T02500139

More Conditions Fewer Conditions

Pressure 30.20 in
Visibility 10.0 miles
Clouds Few 4200 ft
Mostly Cloudy 5000 ft
Heat Index 79 °F
Dew Point 64 °F
Humidity 64%
Rainfall 0.00 in
Snow Depth Not available.
UV 5 out of 12
Pollen 9.00 out of 12
PM2.5 Good
Flu Activity Not available.
METAR KPOU 301653Z VRB06KT 10SM FEW042 BKN050 25/14 A3021 RMK AO2 SLP225 T02500139

More Conditions Fewer Conditions

10-Day Weather Forecast

Almanac

Astronomy

Aug. 30, 2014 Rise Set
Actual Time 6:20 AM EDT 7:33 PM EDT
Civil Twilight 5:51 AM EDT 8:02 PM EDT
Nautical Twilight 5:16 AM EDT 8:37 PM EDT
Astronomical Twilight 4:40 AM EDT 9:13 PM EDT
Moon 11:10 AM EDT 10:00 PM EDT
Length of Visible Light 14h 11m
Length of Day
13h 13m
Tomorrow will be 2m 42s shorter.
Waxing Crescent, 23% of the Moon is Illuminated
Today
Waxing Crescent
Sep 2
First Quarter
Sep 8
Full
Sep 15
Last Quarter
Sep 24
New

Today's Extremes

State Highs State Lows

Community

WunderPhotos

Upload Photos

1,748,583 photos uploaded!

WunderBlogs® & News

Nearby

Air Quality

  Air Quality AQ Index Pollutant
Yesterday Good
OZONE
Yesterday Good
PM2.5
Current Good
PM2.5
Saturday Good
OZONE
Saturday Good
PM2.5
Sunday Moderate
PM2.5
Sunday Good
OZONE
Monday Moderate
OZONE
Monday Moderate
PM2.5
Tuesday Moderate
OZONE
Tuesday Moderate
PM2.5

Snow Depth

Station Depth Elevation
No new snow has been reported.

Earthquake Activity

City Distance Mag. Time & Date
No recent earthquake activity has been reported nearby.
Minimum magnitude displayed is 2.5.

Coastal Water Temperatures

Place Temperature
No Stations Reporting

Nearby Weather Stations